Time;durP1;ratioP1;P1;durP2;ratioP2;P2;SDS_P1;SDS_P2;PMS_P1;PMS_P2;Temp;Humidity;BMP_temperature;BMP_pressure;BME280_temperature;BME280_humidity;BME280_pressure;Samples;Min_cycle;Max_cycle;Signal;HPM_P1;HPM_P2
2022/05/01 00:00:47;;;;;;;25.63;12.15;;;;;;;8.20;81.60;102303.72;5032391;28;20072;-75
2022/05/01 00:06:00;;;;;;;24.33;11.73;;;;;;;8.21;81.09;102313.50;5032412;28;20596;-75
2022/05/01 00:08:26;;;;;;;24.75;11.93;;;;;;;8.24;80.98;102307.13;5032255;28;20041;-75
2022/05/01 00:10:51;;;;;;;22.33;11.38;;;;;;;8.21;81.04;102301.91;5030919;28;20037;-75
2022/05/01 00:13:16;;;;;;;23.95;12.10;;;;;;;8.21;81.24;102309.94;5032187;28;20518;-75
2022/05/01 00:15:42;;;;;;;25.65;12.35;;;;;;;8.20;81.89;102308.22;5030710;28;20029;-75
2022/05/01 00:18:08;;;;;;;22.95;11.65;;;;;;;8.18;80.65;102308.25;5032037;28;20033;-75
2022/05/01 00:20:34;;;;;;;23.83;12.18;;;;;;;8.19;81.25;102303.78;5032202;28;20025;-75
2022/05/01 00:22:59;;;;;;;23.60;12.45;;;;;;;8.19;80.73;102301.13;5030606;28;20564;-75
2022/05/01 00:25:25;;;;;;;26.25;12.55;;;;;;;8.20;81.61;102305.53;5030614;28;20033;-75
2022/05/01 00:27:50;;;;;;;25.23;12.27;;;;;;;8.22;80.29;102303.66;5016482;28;20037;-75
2022/05/01 00:30:15;;;;;;;24.10;13.30;;;;;;;8.26;80.77;102307.06;5012109;28;20041;-75
2022/05/01 00:38:08;;;;;;;26.70;13.35;;;;;;;8.25;80.49;102300.00;5012346;28;20043;-75
2022/05/01 00:40:33;;;;;;;25.70;12.35;;;;;;;8.20;81.31;102301.03;5010764;28;20033;-75
2022/05/01 00:43:03;;;;;;;24.63;12.55;;;;;;;8.18;80.76;102304.72;5012192;28;20041;-75
2022/05/01 00:45:30;;;;;;;23.25;11.95;;;;;;;8.16;81.20;102301.25;5012208;28;20036;-75
2022/05/01 00:47:55;;;;;;;22.48;11.80;;;;;;;8.14;81.66;102297.72;5020907;28;20061;-75
2022/05/01 00:50:20;;;;;;;24.60;13.07;;;;;;;8.13;81.78;102296.00;5030088;28;20056;-75
2022/05/01 00:52:46;;;;;;;25.05;12.05;;;;;;;8.09;81.95;102291.69;5031397;28;20521;-75
2022/05/01 00:55:12;;;;;;;24.17;12.90;;;;;;;8.04;81.92;102295.44;5031543;28;20074;-75
2022/05/01 00:57:37;;;;;;;22.95;12.52;;;;;;;8.04;82.43;102291.88;5031563;28;20079;-75
2022/05/01 01:00:04;;;;;;;26.58;14.30;;;;;;;7.99;82.61;102297.41;5031198;28;20495;-75
2022/05/01 01:02:31;;;;;;;24.92;12.57;;;;;;;7.98;82.94;102284.97;5031550;28;20029;-75
2022/05/01 01:04:57;;;;;;;23.85;12.43;;;;;;;7.98;82.90;102284.97;5029963;28;20017;-75
2022/05/01 01:07:25;;;;;;;25.35;13.25;;;;;;;7.94;83.03;102288.69;5031050;28;20056;-75
2022/05/01 01:09:50;;;;;;;26.65;13.07;;;;;;;7.92;82.90;102279.84;5031514;28;20057;-75
2022/05/01 01:15:09;;;;;;;25.25;12.30;;;;;;;7.85;82.94;102284.56;5031710;28;20099;-75
2022/05/01 01:17:43;;;;;;;25.80;12.57;;;;;;;7.82;82.95;102289.19;5017846;28;20030;-75
2022/05/01 01:20:15;;;;;;;25.13;12.73;;;;;;;7.79;83.29;102283.91;5031520;28;20584;-75
2022/05/01 01:22:47;;;;;;;28.70;14.07;;;;;;;7.77;83.79;102288.47;5031088;28;20032;-75
2022/05/01 01:25:14;;;;;;;28.40;14.32;;;;;;;7.76;83.99;102289.38;5031235;28;20017;-75
2022/05/01 01:27:41;;;;;;;24.33;13.45;;;;;;;7.78;84.41;102284.88;5029823;28;20399;-75
2022/05/01 01:32:52;;;;;;;24.52;12.88;;;;;;;7.78;83.93;102282.19;5031253;28;20048;-75
2022/05/01 01:35:20;;;;;;;25.05;13.32;;;;;;;7.77;84.25;102288.47;5029718;28;20029;-75
2022/05/01 01:37:46;;;;;;;29.08;12.95;;;;;;;7.76;84.22;102284.03;5031246;28;20112;-75
2022/05/01 01:40:34;;;;;;;25.38;13.25;;;;;;;7.77;83.97;102283.97;5031098;28;20447;-75
2022/05/01 01:43:01;;;;;;;25.25;12.85;;;;;;;7.76;84.33;102287.59;5031142;28;20493;-75
2022/05/01 01:45:29;;;;;;;26.58;13.27;;;;;;;7.73;83.69;102273.44;5029612;28;20030;-75
2022/05/01 01:48:16;;;;;;;26.17;13.75;;;;;;;7.72;83.84;102277.06;5024529;28;20030;-75
2022/05/01 01:50:42;;;;;;;25.52;13.77;;;;;;;7.67;84.44;102271.88;5029425;28;20056;-75
2022/05/01 01:53:10;;;;;;;25.75;14.38;;;;;;;7.65;84.32;102276.44;5029449;28;20075;-75
2022/05/01 01:55:38;;;;;;;26.08;12.88;;;;;;;7.61;84.60;102272.97;5031063;28;20025;-75
2022/05/01 01:58:05;;;;;;;23.35;12.85;;;;;;;7.59;85.01;102284.69;5030835;28;20033;-75
2022/05/01 02:00:31;;;;;;;25.17;13.15;;;;;;;7.58;84.33;102275.78;5030965;28;20029;-75
2022/05/01 02:03:06;;;;;;;25.35;13.57;;;;;;;7.59;84.22;102282.88;5030854;28;20043;-75
2022/05/01 02:05:33;;;;;;;28.00;13.57;;;;;;;7.61;83.96;102286.34;5030826;28;20091;-75
2022/05/01 02:07:58;;;;;;;29.23;12.75;;;;;;;7.60;83.50;102276.63;5030352;28;20130;-75
2022/05/01 02:10:25;;;;;;;25.70;13.90;;;;;;;7.60;84.36;102279.28;5030610;28;20092;-75
2022/05/01 02:12:51;;;;;;;24.70;13.82;;;;;;;7.60;83.48;102283.75;5034117;28;20085;-75
2022/05/01 02:15:17;;;;;;;26.40;14.38;;;;;;;7.58;84.58;102273.09;5034647;28;20022;-75
2022/05/01 02:17:43;;;;;;;25.33;13.05;;;;;;;7.58;84.30;102277.59;5034279;28;20473;-75
2022/05/01 02:20:09;;;;;;;25.88;12.63;;;;;;;7.59;83.44;102271.31;5033615;28;20040;-75
2022/05/01 02:22:35;;;;;;;26.13;14.02;;;;;;;7.60;83.40;102273.03;5031795;28;20114;-75
2022/05/01 02:25:04;;;;;;;25.65;13.73;;;;;;;7.61;83.11;102272.13;5033363;28;20025;-75
2022/05/01 02:27:29;;;;;;;29.35;13.88;;;;;;;7.63;83.52;102273.81;5021743;28;20498;-75
2022/05/01 02:29:54;;;;;;;26.45;13.98;;;;;;;7.61;83.30;102264.94;5014436;28;20030;-75
2022/05/01 02:32:20;;;;;;;26.75;13.77;;;;;;;7.60;83.90;102268.59;5012989;28;20042;-75
2022/05/01 02:34:45;;;;;;;28.80;14.05;;;;;;;7.59;83.26;102253.44;5013258;28;20512;-75
2022/05/01 02:37:11;;;;;;;26.63;13.57;;;;;;;7.61;83.47;102256.06;5012707;28;20019;-75
2022/05/01 02:39:36;;;;;;;26.27;13.35;;;;;;;7.58;83.77;102248.16;5014408;28;20105;-75
2022/05/01 02:42:01;;;;;;;27.05;14.38;;;;;;;7.56;83.40;102245.53;5013092;28;20452;-75
2022/05/01 02:44:27;;;;;;;28.17;14.98;;;;;;;7.50;83.71;102241.28;5013009;28;20060;-75
2022/05/01 02:46:52;;;;;;;28.52;14.05;;;;;;;7.44;83.95;102243.34;5014687;28;20396;-75
2022/05/01 02:49:17;;;;;;;26.58;13.48;;;;;;;7.38;83.96;102246.22;5033904;28;20079;-75
2022/05/01 02:51:42;;;;;;;24.80;13.55;;;;;;;7.34;84.28;102249.03;5033670;28;20021;-75
2022/05/01 02:54:08;;;;;;;26.30;14.68;;;;;;;7.34;84.58;102246.34;5034090;28;20042;-75
2022/05/01 02:56:34;;;;;;;27.08;13.45;;;;;;;7.35;84.35;102248.09;5032519;28;20410;-75
2022/05/01 02:59:00;;;;;;;26.45;14.40;;;;;;;7.35;84.30;102247.25;5033925;28;20025;-75
2022/05/01 03:01:26;;;;;;;27.58;14.85;;;;;;;7.33;84.35;102251.75;5033570;28;20100;-75
2022/05/01 03:03:51;;;;;;;27.45;14.13;;;;;;;7.30;84.37;102239.38;5032426;28;20029;-75
2022/05/01 03:06:17;;;;;;;27.33;13.63;;;;;;;7.29;84.21;102248.34;5033235;28;20022;-75
2022/05/01 03:08:42;;;;;;;27.30;14.90;;;;;;;7.23;84.66;102237.84;5032223;28;20060;-75
2022/05/01 03:11:08;;;;;;;27.05;15.25;;;;;;;7.18;84.81;102240.69;5033849;28;20021;-75
2022/05/01 03:13:33;;;;;;;26.35;13.93;;;;;;;7.13;84.28;102241.78;5032228;28;20033;-75
2022/05/01 03:16:00;;;;;;;28.33;14.45;;;;;;;7.11;84.55;102239.16;5027193;28;20478;-75
2022/05/01 03:23:53;;;;;;;27.45;15.98;;;;;;;7.01;84.95;102237.75;5033670;28;20527;-75
2022/05/01 03:26:19;;;;;;;28.52;15.77;;;;;;;6.96;84.94;102229.91;5031984;28;20061;-75
2022/05/01 03:28:48;;;;;;;28.25;15.90;;;;;;;6.98;85.05;102232.53;5033087;28;20057;-75
2022/05/01 03:31:14;;;;;;;30.63;14.43;;;;;;;6.97;85.19;102229.00;5031690;28;20473;-75
2022/05/01 03:33:41;;;;;;;27.38;15.63;;;;;;;6.90;85.72;102230.13;5031658;28;20021;-75
2022/05/01 03:36:07;;;;;;;27.70;15.98;;;;;;;6.85;85.48;102231.22;5033012;28;20091;-75
2022/05/01 03:38:36;;;;;;;28.77;16.30;;;;;;;6.78;85.49;102230.59;5032856;28;20021;-75
2022/05/01 03:41:04;;;;;;;27.27;16.63;;;;;;;6.74;85.52;102220.94;5032948;28;20044;-75
2022/05/01 03:43:33;;;;;;;28.30;16.67;;;;;;;6.69;85.56;102217.53;5030762;28;20530;-75
2022/05/01 03:46:00;;;;;;;31.63;15.07;;;;;;;6.62;85.71;102217.75;5031716;28;20037;-75
2022/05/01 03:48:26;;;;;;;27.63;15.93;;;;;;;6.55;85.90;102229.56;5027937;28;20499;-75
2022/05/01 03:50:52;;;;;;;24.75;14.95;;;;;;;6.50;86.09;102231.53;5032913;28;20021;-75
2022/05/01 03:53:19;;;;;;;27.90;15.75;;;;;;;6.47;85.92;102226.28;5032736;28;20033;-75
2022/05/01 03:55:44;;;;;;;29.42;16.15;;;;;;;6.43;85.93;102227.31;5032622;28;20041;-75
2022/05/01 03:58:09;;;;;;;30.50;16.80;;;;;;;6.38;85.78;102229.25;5031576;28;20136;-75
2022/05/01 04:00:35;;;;;;;29.00;16.55;;;;;;;6.32;85.93;102229.47;5032587;28;20037;-75
2022/05/01 04:03:00;;;;;;;28.80;15.95;;;;;;;6.23;86.39;102239.53;5032662;28;20033;-75
2022/05/01 04:05:26;;;;;;;29.48;15.63;;;;;;;6.18;86.32;102229.91;5032564;28;20083;-75
2022/05/01 04:07:51;;;;;;;30.67;15.82;;;;;;;6.09;86.30;102231.97;5032026;28;20412;-75
2022/05/01 04:10:16;;;;;;;30.88;17.13;;;;;;;6.05;86.31;102229.47;5030993;28;20033;-75
2022/05/01 04:12:44;;;;;;;28.92;15.75;;;;;;;6.00;86.41;102226.06;5032395;28;20037;-75
2022/05/01 04:15:11;;;;;;;35.80;16.70;;;;;;;5.94;86.59;102230.66;5031148;28;20040;-75
2022/05/01 04:17:39;;;;;;;30.10;17.25;;;;;;;5.86;86.38;102232.66;5032197;28;20037;-75
2022/05/01 04:20:10;;;;;;;34.95;16.75;;;;;;;5.82;86.35;102233.69;5032194;28;20473;-75
2022/05/01 04:22:43;;;;;;;36.17;16.77;;;;;;;5.75;86.47;102229.44;5032252;28;20021;-75
2022/05/01 04:25:18;;;;;;;28.98;15.90;;;;;;;5.70;86.62;102234.94;5032222;28;20037;-75
2022/05/01 04:27:46;;;;;;;31.88;16.48;;;;;;;5.64;86.74;102231.56;5017550;28;20041;-75
2022/05/01 04:30:14;;;;;;;30.50;18.17;;;;;;;5.58;87.05;102236.19;5012282;28;20029;-75
2022/05/01 04:33:08;;;;;;;28.60;15.90;;;;;;;5.55;86.90;102230.94;5012205;28;20409;-75
2022/05/01 04:35:42;;;;;;;28.75;15.27;;;;;;;5.50;86.56;102232.84;5010448;28;20030;-75
2022/05/01 04:38:12;;;;;;;31.95;17.27;;;;;;;5.46;87.08;102225.91;5012379;28;20401;-75
2022/05/01 04:40:40;;;;;;;30.63;17.30;;;;;;;5.43;87.16;102229.53;5011242;28;20029;-75
2022/05/01 04:43:09;;;;;;;30.83;17.52;;;;;;;5.41;87.23;102222.47;5012036;28;20072;-75
2022/05/01 04:45:35;;;;;;;30.43;18.20;;;;;;;5.41;87.51;102233.13;5010884;28;20041;-75
2022/05/01 04:48:02;;;;;;;30.23;16.70;;;;;;;5.41;87.33;102233.13;5021817;28;20127;-75
2022/05/01 04:50:28;;;;;;;30.10;18.23;;;;;;;5.40;87.43;102232.28;5030626;28;20064;-75
2022/05/01 04:52:54;;;;;;;29.13;18.25;;;;;;;5.40;87.83;102229.63;5030197;28;20034;-75
2022/05/01 04:55:19;;;;;;;30.90;17.42;;;;;;;5.38;88.18;102234.09;5030260;28;20120;-75
2022/05/01 04:57:45;;;;;;;29.73;17.85;;;;;;;5.39;87.85;102240.31;5030352;28;20112;-75
2022/05/01 05:00:11;;;;;;;33.58;19.15;;;;;;;5.38;88.19;102238.56;5030283;28;20026;-75
2022/05/01 05:02:41;;;;;;;33.60;18.33;;;;;;;5.37;88.43;102244.81;5031259;28;20366;-75
2022/05/01 05:05:08;;;;;;;33.40;18.73;;;;;;;5.40;88.50;102239.38;5031580;28;20029;-75
2022/05/01 05:07:33;;;;;;;31.33;18.50;;;;;;;5.42;88.59;102240.22;5031068;28;20132;-75
2022/05/01 05:09:59;;;;;;;30.20;17.77;;;;;;;5.43;88.40;102237.53;5031396;28;20520;-75
2022/05/01 05:12:25;;;;;;;29.00;18.45;;;;;;;5.43;88.36;102236.63;5031662;28;20029;-75
2022/05/01 05:14:53;;;;;;;32.08;19.73;;;;;;;5.40;88.33;102242.94;5031402;28;20025;-75
2022/05/01 05:17:22;;;;;;;30.08;18.27;;;;;;;5.39;88.63;102243.00;5018829;28;20477;-75
2022/05/01 05:19:48;;;;;;;29.55;18.48;;;;;;;5.39;88.40;102241.19;5031347;28;20048;-75
2022/05/01 05:22:14;;;;;;;31.00;18.55;;;;;;;5.35;88.21;102244.00;5031072;28;20032;-75
2022/05/01 05:24:40;;;;;;;29.83;18.17;;;;;;;5.33;nan;102246.72;5031307;28;20573;-75
2022/05/01 05:27:05;;;;;;;31.48;18.65;;;;;;;5.34;88.69;102252.91;5031236;28;20045;-75
2022/05/01 05:29:30;;;;;;;29.15;16.05;;;;;;;5.36;88.43;102254.63;5029761;28;20122;-75
2022/05/01 05:31:55;;;;;;;34.05;20.08;;;;;;;5.41;88.96;102251.81;5031125;28;20033;-75
2022/05/01 05:34:21;;;;;;;31.67;19.55;;;;;;;5.48;89.03;102258.72;5031186;28;20037;-75
2022/05/01 05:36:46;;;;;;;35.45;20.20;;;;;;;5.52;88.67;102254.16;5029644;28;20095;-75
2022/05/01 05:39:12;;;;;;;34.75;21.48;;;;;;;5.55;88.63;102262.06;5031137;28;20032;-75
2022/05/01 05:41:37;;;;;;;32.58;20.30;;;;;;;5.58;89.14;102265.53;5031094;28;20104;-75
2022/05/01 05:44:04;;;;;;;36.92;21.23;;;;;;;5.65;89.36;102266.22;5031144;28;20594;-75
2022/05/01 05:46:29;;;;;;;34.47;20.73;;;;;;;5.68;89.09;102263.47;5028711;28;20025;-75
2022/05/01 05:48:54;;;;;;;32.65;21.00;;;;;;;5.72;89.09;102267.75;5031258;28;20129;-75
2022/05/01 05:51:19;;;;;;;32.88;21.52;;;;;;;5.79;89.44;102265.78;5033608;28;20021;-75
2022/05/01 05:53:44;;;;;;;35.85;20.98;;;;;;;5.85;89.43;102275.41;5035040;28;20037;-75
2022/05/01 05:56:10;;;;;;;35.53;22.05;;;;;;;5.92;89.46;102267.16;5034887;28;20503;-75
2022/05/01 05:58:35;;;;;;;33.75;21.70;;;;;;;6.01;89.38;102270.50;5033497;28;20071;-75
2022/05/01 06:01:00;;;;;;;33.00;21.08;;;;;;;6.08;89.29;102266.72;5034807;28;20021;-75
2022/05/01 06:03:25;;;;;;;37.22;21.83;;;;;;;6.15;89.39;102268.28;5034754;28;20040;-75
2022/05/01 06:05:51;;;;;;;36.58;21.73;;;;;;;6.21;89.10;102264.50;5033274;28;20029;-75
2022/05/01 06:08:16;;;;;;;34.03;21.60;;;;;;;6.23;88.62;102268.03;5033419;28;20049;-75
2022/05/01 06:10:42;;;;;;;33.10;22.27;;;;;;;6.30;89.01;102266.91;5033456;28;20029;-75
2022/05/01 06:13:08;;;;;;;33.47;21.70;;;;;;;6.36;89.20;102271.19;5033439;28;20037;-75
2022/05/01 06:15:33;;;;;;;35.20;22.17;;;;;;;6.46;89.10;102267.28;5033274;28;20028;-75
2022/05/01 06:17:58;;;;;;;35.08;22.98;;;;;;;6.57;90.34;102269.59;5033111;28;20545;-75
2022/05/01 06:20:23;;;;;;;35.55;23.40;;;;;;;6.69;89.84;102268.28;5033275;28;20048;-75
2022/05/01 06:22:50;;;;;;;38.38;21.98;;;;;;;6.80;89.54;102271.47;5033165;28;20048;-75
2022/05/01 06:25:15;;;;;;;35.72;22.98;;;;;;;6.92;89.14;102273.69;5033086;28;20026;-75
2022/05/01 06:27:41;;;;;;;36.50;21.15;;;;;;;7.03;88.48;102270.66;5018986;28;20037;-75
2022/05/01 06:30:07;;;;;;;34.78;21.92;;;;;;;7.12;88.34;102267.66;5011840;28;20092;-75
2022/05/01 06:32:33;;;;;;;35.55;23.42;;;;;;;7.24;87.78;102273.50;5013178;28;20088;-75
2022/05/01 06:34:59;;;;;;;32.25;20.67;;;;;;;7.32;87.09;102272.28;5013240;28;20109;-75
2022/05/01 06:37:24;;;;;;;32.28;21.08;;;;;;;7.39;86.49;102277.41;5011843;28;20552;-75
2022/05/01 06:39:50;;;;;;;33.40;20.30;;;;;;;7.45;86.31;102272.72;5013209;28;20021;-75
2022/05/01 06:42:16;;;;;;;35.38;23.42;;;;;;;7.54;85.59;102274.19;5013109;28;20037;-75
2022/05/01 06:44:41;;;;;;;32.70;20.02;;;;;;;7.64;85.71;102283.59;5013062;28;20567;-75
2022/05/01 06:47:08;;;;;;;33.10;19.58;;;;;;;7.68;84.87;102282.53;5014236;28;20504;-75
2022/05/01 06:49:33;;;;;;;35.40;21.92;;;;;;;7.75;85.20;102279.63;5032735;28;20026;-75
2022/05/01 06:51:59;;;;;;;30.80;19.85;;;;;;;7.78;84.87;102276.84;5032519;28;20045;-75
2022/05/01 06:54:24;;;;;;;39.33;23.27;;;;;;;7.83;84.89;102277.50;5031401;28;20022;-75
2022/05/01 06:56:49;;;;;;;32.95;21.00;;;;;;;7.86;85.70;102272.94;5031161;28;20116;-75
2022/05/01 06:59:15;;;;;;;30.58;20.50;;;;;;;7.93;85.26;102272.69;5032607;28;20080;-75
2022/05/01 07:01:40;;;;;;;34.60;20.75;;;;;;;7.98;86.35;102276.94;5032423;28;20103;-75
2022/05/01 07:04:05;;;;;;;32.97;20.58;;;;;;;8.01;84.79;102274.13;5032639;28;20108;-75
2022/05/01 07:06:31;;;;;;;33.60;19.77;;;;;;;8.07;85.15;102274.81;4996436;28;1029223;-75
2022/05/01 07:08:56;;;;;;;34.40;21.15;;;;;;;8.12;85.36;102280.88;5033616;28;20036;-75
2022/05/01 07:11:21;;;;;;;34.55;20.48;;;;;;;8.18;84.55;102276.13;5033614;28;20026;-75
2022/05/01 07:13:46;;;;;;;32.90;20.30;;;;;;;8.25;84.32;102282.09;5033634;28;20029;-75
2022/05/01 07:16:12;;;;;;;32.92;19.67;;;;;;;8.32;83.80;102277.38;5024993;28;20054;-75
2022/05/01 07:18:37;;;;;;;34.50;19.42;;;;;;;8.38;83.27;102285.16;5028622;28;20465;-75
2022/05/01 07:21:02;;;;;;;31.17;19.73;;;;;;;8.47;83.54;102281.28;5015410;28;20045;-75
2022/05/01 07:23:28;;;;;;;31.73;19.67;;;;;;;8.52;84.03;102279.25;5015507;28;20037;-75
2022/05/01 07:25:53;;;;;;;30.23;19.27;;;;;;;8.55;82.76;102287.16;5033358;28;20017;-75
2022/05/01 07:28:19;;;;;;;34.03;20.05;;;;;;;8.57;82.62;102283.50;5031850;28;20100;-75
2022/05/01 07:30:44;;;;;;;32.55;19.83;;;;;;;8.61;81.76;102281.56;5033157;28;20025;-75
2022/05/01 07:33:10;;;;;;;30.45;19.08;;;;;;;8.64;81.36;102286.78;5031828;28;20029;-75
2022/05/01 07:35:35;;;;;;;31.02;18.85;;;;;;;8.68;81.86;102290.22;5033163;28;20424;-75
2022/05/01 07:38:01;;;;;;;29.90;18.40;;;;;;;8.72;81.61;102292.69;5031747;28;20499;-75
2022/05/01 07:40:27;;;;;;;31.90;19.27;;;;;;;8.79;80.71;102292.44;5033092;28;20029;-75
2022/05/01 07:42:52;;;;;;;35.03;19.48;;;;;;;8.83;79.83;102286.00;5031676;28;20028;-75
2022/05/01 07:45:18;;;;;;;33.38;18.98;;;;;;;8.89;79.53;102294.66;5033243;28;20523;-75
2022/05/01 07:47:43;;;;;;;28.10;17.60;;;;;;;8.91;78.94;102291.91;5026389;28;20025;-75
2022/05/01 07:50:09;;;;;;;29.23;17.38;;;;;;;8.92;78.90;102293.66;5032839;28;20056;-75
2022/05/01 07:52:36;;;;;;;29.88;17.27;;;;;;;8.95;78.98;102290.84;5032897;28;20060;-75
2022/05/01 07:55:03;;;;;;;30.00;16.95;;;;;;;9.05;78.66;102288.66;5032886;28;20052;-75
2022/05/01 07:57:29;;;;;;;29.48;17.40;;;;;;;9.13;77.78;102290.97;5032725;28;20533;-75
2022/05/01 07:59:54;;;;;;;39.38;19.85;;;;;;;9.24;78.54;102283.34;5032926;28;20104;-75
2022/05/01 08:02:20;;;;;;;30.20;16.33;;;;;;;9.30;77.70;102288.41;5032457;28;20033;-75
2022/05/01 08:04:46;;;;;;;29.10;18.45;;;;;;;9.36;76.46;102282.78;5032426;28;20025;-75
2022/05/01 08:07:11;;;;;;;29.23;17.02;;;;;;;9.43;77.15;102286.91;5032282;28;20049;-75
2022/05/01 08:09:36;;;;;;;32.38;16.30;;;;;;;9.48;74.97;102284.03;5030471;28;20368;-75
2022/05/01 08:12:03;;;;;;;27.83;15.25;;;;;;;9.58;77.18;102279.13;5032408;28;20021;-75
2022/05/01 08:14:28;;;;;;;29.70;15.93;;;;;;;9.66;76.02;102276.94;5032198;28;20030;-75
2022/05/01 08:16:54;;;;;;;29.92;16.92;;;;;;;9.72;75.08;102283.81;5032270;28;20040;-75
2022/05/01 08:22:07;;;;;;;26.88;13.95;;;;;;;9.88;75.54;102267.88;5032271;28;20036;-75
2022/05/01 08:24:33;;;;;;;26.00;12.95;;;;;;;9.99;73.56;102276.28;5032105;28;20029;-75
2022/05/01 08:27:05;;;;;;;24.75;12.43;;;;;;;10.08;71.69;102281.22;5023903;28;20045;-75
2022/05/01 08:29:34;;;;;;;22.83;10.18;;;;;;;10.17;69.60;102271.84;5012823;28;20414;-75
2022/05/01 08:32:00;;;;;;;22.65;10.52;;;;;;;10.27;69.43;102272.25;5010747;28;20493;-75
2022/05/01 08:34:26;;;;;;;23.58;11.02;;;;;;;10.40;70.33;102264.50;5011019;28;20018;-75
2022/05/01 08:36:51;;;;;;;22.80;10.38;;;;;;;10.54;70.75;102264.69;5012169;28;20501;-75
2022/05/01 08:39:16;;;;;;;20.50;9.43;;;;;;;10.60;67.48;102258.09;5012246;28;20022;-75
2022/05/01 08:41:42;;;;;;;20.60;8.40;;;;;;;10.67;65.78;102264.91;5012178;28;20068;-75
2022/05/01 08:44:12;;;;;;;22.83;10.82;;;;;;;10.76;67.16;102261.78;5012196;28;20386;-75
2022/05/01 08:46:55;;;;;;;21.77;8.63;;;;;;;10.82;64.36;102261.44;5010619;28;20025;-75
2022/05/01 08:49:22;;;;;;;23.50;8.50;;;;;;;10.90;64.80;102254.81;4992328;28;20038;-75
2022/05/01 08:51:50;;;;;;;18.40;7.20;;;;;;;10.98;61.52;102257.94;4992358;28;20060;-75
2022/05/01 08:54:16;;;;;;;20.33;8.30;;;;;;;11.09;63.91;102260.94;4992424;28;20582;-75
2022/05/01 08:56:43;;;;;;;20.55;7.95;;;;;;;11.11;61.20;102260.84;4992460;28;20109;-75
2022/05/01 08:59:10;;;;;;;23.35;8.93;;;;;;;11.11;62.84;102259.06;4992509;28;20030;-75
2022/05/01 09:01:37;;;;;;;19.02;8.57;;;;;;;11.17;62.19;102249.75;4992224;28;20069;-75
2022/05/01 09:04:12;;;;;;;18.65;7.72;;;;;;;11.21;58.46;102251.34;4992231;28;20033;-75
2022/05/01 09:06:38;;;;;;;20.50;7.32;;;;;;;11.28;59.34;102251.91;4990565;28;20085;-75
2022/05/01 09:09:18;;;;;;;20.02;7.10;;;;;;;11.35;59.95;102258.69;4992191;28;20062;-75
2022/05/01 09:14:28;;;;;;;17.98;7.35;;;;;;;11.44;55.15;102255.50;4992212;28;20037;-75
2022/05/01 09:17:12;;;;;;;19.60;7.57;;;;;;;11.51;60.68;102254.22;5006087;28;20141;-75
2022/05/01 09:19:38;;;;;;;17.42;6.78;;;;;;;11.48;57.92;102258.88;5030133;28;20548;-75
2022/05/01 09:22:04;;;;;;;20.50;8.00;;;;;;;11.47;56.77;102258.00;5031000;28;20101;-75
2022/05/01 09:24:30;;;;;;;21.08;7.40;;;;;;;11.47;57.02;102258.00;5029951;28;20397;-75
2022/05/01 09:26:57;;;;;;;20.10;7.68;;;;;;;11.48;56.69;102257.06;5031232;28;20033;-75
2022/05/01 09:29:25;;;;;;;20.17;7.50;;;;;;;11.46;53.50;102267.03;5031041;28;20029;-75
2022/05/01 09:31:50;;;;;;;20.23;7.50;;;;;;;11.53;53.73;102263.06;5031170;28;20397;-75
2022/05/01 09:34:31;;;;;;;18.05;6.40;;;;;;;11.64;57.37;102264.28;5031337;28;20029;-75
2022/05/01 09:36:58;;;;;;;20.33;7.38;;;;;;;11.70;56.80;102259.44;5031016;28;20025;-75
2022/05/01 09:39:25;;;;;;;21.35;7.32;;;;;;;11.86;54.89;102261.28;5029727;28;20171;-75
2022/05/01 09:41:52;;;;;;;19.27;7.38;;;;;;;12.01;55.11;102263.13;5031161;28;20427;-75
2022/05/01 09:44:19;;;;;;;18.20;7.65;;;;;;;12.07;53.35;102254.69;5031018;28;20112;-75
2022/05/01 09:46:46;;;;;;;19.80;7.55;;;;;;;12.10;52.36;102255.50;5026410;28;20029;-75
2022/05/01 09:49:14;;;;;;;20.67;7.43;;;;;;;12.17;53.76;102256.88;5030809;28;20026;-75
2022/05/01 09:51:46;;;;;;;19.33;7.45;;;;;;;12.28;55.34;102250.88;5029650;28;20525;-75
2022/05/01 09:54:27;;;;;;;18.95;7.40;;;;;;;12.45;56.45;102255.28;5029651;28;20025;-75
2022/05/01 09:56:53;;;;;;;22.98;8.35;;;;;;;12.51;51.74;102261.16;5030998;28;20039;-75
2022/05/01 09:59:21;;;;;;;20.67;7.72;;;;;;;12.59;54.25;102258.91;5030814;28;20392;-75
2022/05/01 10:01:55;;;;;;;17.75;7.60;;;;;;;12.62;52.90;102252.47;5030836;28;20029;-75
2022/05/01 10:04:24;;;;;;;23.05;8.63;;;;;;;12.62;51.98;102248.88;5029487;28;20030;-75
2022/05/01 10:06:52;;;;;;;20.25;7.40;;;;;;;12.66;50.77;102245.03;5030439;28;20054;-75
2022/05/01 10:09:19;;;;;;;19.58;7.75;;;;;;;12.70;50.09;102249.28;5030741;28;20041;-75
2022/05/01 10:11:46;;;;;;;20.23;7.65;;;;;;;12.74;49.49;102245.47;5030743;28;20029;-75
2022/05/01 10:14:11;;;;;;;20.10;8.20;;;;;;;12.85;52.17;102242.94;5030877;28;20059;-75
2022/05/01 10:16:40;;;;;;;19.90;7.93;;;;;;;12.96;52.94;102241.44;5029361;28;20036;-75
2022/05/01 10:19:06;;;;;;;17.58;6.65;;;;;;;12.95;48.07;102240.56;5029656;28;20068;-75
2022/05/01 10:21:33;;;;;;;20.30;7.30;;;;;;;13.02;49.20;102238.38;5030520;28;20017;-75
2022/05/01 10:23:58;;;;;;;20.05;7.43;;;;;;;13.10;51.14;102239.66;5030792;28;20087;-75
2022/05/01 10:26:28;;;;;;;18.65;7.28;;;;;;;13.19;48.59;102238.22;5030708;28;20029;-75
2022/05/01 10:29:21;;;;;;;19.27;7.75;;;;;;;13.21;49.11;102238.97;5029899;28;20029;-75
2022/05/01 10:32:21;;;;;;;18.52;7.00;;;;;;;13.16;46.73;102237.50;5030426;28;20017;-75
2022/05/01 10:35:08;;;;;;;17.98;6.75;;;;;;;13.13;47.42;102229.59;5033218;28;20086;-75
2022/05/01 10:37:49;;;;;;;18.73;6.93;;;;;;;13.18;48.16;102236.47;5017931;28;20481;-75
2022/05/01 10:40:15;;;;;;;18.60;7.53;;;;;;;13.19;48.20;102230.09;5014482;28;20110;-75
2022/05/01 10:42:46;;;;;;;20.02;6.75;;;;;;;13.21;48.29;102228.16;5014415;28;20541;-75
2022/05/01 10:45:23;;;;;;;17.55;6.03;;;;;;;13.19;46.73;102226.53;5014369;28;20096;-75
2022/05/01 10:47:50;;;;;;;19.90;7.13;;;;;;;13.14;46.13;102221.41;5022261;28;20032;-75
2022/05/01 10:50:21;;;;;;;19.60;6.90;;;;;;;13.18;46.97;102219.41;5032879;28;20029;-75
2022/05/01 10:53:06;;;;;;;17.35;7.20;;;;;;;13.18;46.64;102219.41;5034067;28;20029;-75
2022/05/01 10:55:42;;;;;;;19.27;7.07;;;;;;;13.16;46.12;102221.31;5032642;28;20068;-75
2022/05/01 10:58:30;;;;;;;19.98;7.30;;;;;;;13.16;46.63;102210.53;5032479;28;20021;-75
2022/05/01 11:00:56;;;;;;;20.10;7.32;;;;;;;13.11;44.51;102213.50;5033770;28;20076;-75
2022/05/01 11:03:35;;;;;;;20.38;6.95;;;;;;;13.16;46.85;102214.06;5033685;28;20021;-75
2022/05/01 11:06:03;;;;;;;19.00;7.10;;;;;;;13.22;47.22;102202.03;5032034;28;20063;-75
2022/05/01 11:08:31;;;;;;;21.05;6.95;;;;;;;13.25;46.47;102202.72;5033442;28;20590;-75
2022/05/01 11:10:59;;;;;;;17.90;7.10;;;;;;;13.31;47.20;102200.56;5034134;28;20075;-75
2022/05/01 11:13:31;;;;;;;18.20;6.65;;;;;;;13.38;47.01;102201.97;5033583;28;20026;-75
2022/05/01 11:15:57;;;;;;;19.73;7.20;;;;;;;13.37;45.30;102203.81;5027483;28;20018;-75
2022/05/01 11:18:52;;;;;;;20.00;7.28;;;;;;;13.39;46.56;102195.59;5026377;28;20392;-75
2022/05/01 11:21:20;;;;;;;18.27;6.85;;;;;;;13.32;45.20;102197.78;5033816;28;20409;-75
2022/05/01 11:24:06;;;;;;;19.15;7.45;;;;;;;13.29;44.17;102188.06;5033231;28;20021;-75
2022/05/01 11:26:32;;;;;;;17.88;7.57;;;;;;;13.27;45.48;102184.56;5032872;28;20033;-75
2022/05/01 11:29:13;;;;;;;18.15;7.18;;;;;;;13.28;46.11;102183.63;5033253;28;20036;-75
2022/05/01 11:31:39;;;;;;;22.83;7.45;;;;;;;13.34;46.06;102178.78;5031869;28;20566;-75
2022/05/01 11:34:16;;;;;;;18.48;6.88;;;;;;;13.40;47.38;102178.44;5031917;28;20029;-75
2022/05/01 11:36:53;;;;;;;18.00;6.93;;;;;;;13.38;46.08;102181.25;5033119;28;20037;-75
2022/05/01 11:39:19;;;;;;;19.70;7.47;;;;;;;13.38;48.55;102172.25;5033106;28;20025;-75
2022/05/01 11:41:46;;;;;;;18.65;6.88;;;;;;;13.34;45.60;102174.31;5031543;28;20029;-75
2022/05/01 11:44:22;;;;;;;17.15;6.65;;;;;;;13.36;49.28;102171.50;5031749;28;20435;-75